sensor_id;sensor_type;location;lat;lon;timestamp;temperature;humidity
57444;DHT22;43289;52.962;6.196;2023-07-08T06:19:28;22.40;99.90
57444;DHT22;43289;52.962;6.196;2023-07-08T06:21:54;19.70;99.90
57444;DHT22;43289;52.962;6.196;2023-07-08T06:24:20;19.60;99.90
57444;DHT22;43289;52.962;6.196;2023-07-08T06:26:46;19.70;99.90
57444;DHT22;43289;52.962;6.196;2023-07-08T06:29:12;19.80;99.90
57444;DHT22;43289;52.962;6.196;2023-07-08T06:31:38;20.00;99.90
57444;DHT22;43289;52.962;6.196;2023-07-08T06:34:04;20.10;99.90
57444;DHT22;43289;52.962;6.196;2023-07-08T06:36:30;20.20;99.90
57444;DHT22;43289;52.962;6.196;2023-07-08T06:38:55;20.30;99.90
57444;DHT22;43289;52.962;6.196;2023-07-08T06:41:21;20.40;99.90
57444;DHT22;43289;52.962;6.196;2023-07-08T06:43:47;20.50;99.90
57444;DHT22;43289;52.962;6.196;2023-07-08T06:46:12;20.50;99.90
57444;DHT22;43289;52.962;6.196;2023-07-08T06:48:38;20.60;99.90
57444;DHT22;43289;52.962;6.196;2023-07-08T06:51:04;20.70;99.90
57444;DHT22;43289;52.962;6.196;2023-07-08T06:53:29;20.90;99.90
57444;DHT22;43289;52.962;6.196;2023-07-08T06:55:55;21.00;99.90
57444;DHT22;43289;52.962;6.196;2023-07-08T06:58:20;21.10;99.90
57444;DHT22;43289;52.962;6.196;2023-07-08T07:00:46;21.20;99.90
57444;DHT22;43289;52.962;6.196;2023-07-08T07:03:12;21.30;99.90
57444;DHT22;43289;52.962;6.196;2023-07-08T07:05:39;21.40;99.90
57444;DHT22;43289;52.962;6.196;2023-07-08T07:08:05;21.50;99.90
57444;DHT22;43289;52.962;6.196;2023-07-08T07:10:32;21.60;99.90
57444;DHT22;43289;52.962;6.196;2023-07-08T08:06:38;21.80;99.90
57444;DHT22;43289;52.962;6.196;2023-07-08T08:21:15;24.40;99.90
57444;DHT22;43289;52.962;6.196;2023-07-08T08:23:41;25.10;99.90
57444;DHT22;43289;52.962;6.196;2023-07-08T08:26:07;25.10;99.90
57444;DHT22;43289;52.962;6.196;2023-07-08T08:28:33;25.10;99.90
57444;DHT22;43289;52.962;6.196;2023-07-08T08:30:58;25.20;99.90
57444;DHT22;43289;52.962;6.196;2023-07-08T08:33:24;25.40;99.90
57444;DHT22;43289;52.962;6.196;2023-07-08T08:35:49;25.50;99.90
57444;DHT22;43289;52.962;6.196;2023-07-08T08:38:15;25.70;99.90
57444;DHT22;43289;52.962;6.196;2023-07-08T08:40:43;25.80;99.90
57444;DHT22;43289;52.962;6.196;2023-07-08T08:43:22;25.80;99.90
57444;DHT22;43289;52.962;6.196;2023-07-08T08:48:41;26.20;99.90
57444;DHT22;43289;52.962;6.196;2023-07-08T08:51:12;26.30;99.90
57444;DHT22;43289;52.962;6.196;2023-07-08T08:53:39;26.50;99.90
57444;DHT22;43289;52.962;6.196;2023-07-08T08:56:23;26.50;99.90
57444;DHT22;43289;52.962;6.196;2023-07-08T09:02:52;26.70;99.90
57444;DHT22;43289;52.962;6.196;2023-07-08T09:05:19;26.80;99.90
57444;DHT22;43289;52.962;6.196;2023-07-08T09:08:05;27.00;99.90
57444;DHT22;43289;52.962;6.196;2023-07-08T09:10:42;27.00;99.90
57444;DHT22;43289;52.962;6.196;2023-07-08T09:13:15;27.20;99.90
57444;DHT22;43289;52.962;6.196;2023-07-08T09:15:42;27.20;99.90
57444;DHT22;43289;52.962;6.196;2023-07-08T09:18:25;27.40;99.90
57444;DHT22;43289;52.962;6.196;2023-07-08T09:20:55;27.40;99.90
57444;DHT22;43289;52.962;6.196;2023-07-08T09:23:29;27.40;99.90
57444;DHT22;43289;52.962;6.196;2023-07-08T09:26:06;27.50;99.90
57444;DHT22;43289;52.962;6.196;2023-07-08T09:28:40;27.50;99.90
57444;DHT22;43289;52.962;6.196;2023-07-08T09:31:08;27.70;99.90
57444;DHT22;43289;52.962;6.196;2023-07-08T09:33:37;27.80;99.90
57444;DHT22;43289;52.962;6.196;2023-07-08T09:36:20;28.00;99.90
57444;DHT22;43289;52.962;6.196;2023-07-08T09:38:48;28.20;99.90
57444;DHT22;43289;52.962;6.196;2023-07-08T09:41:30;28.30;99.90
57444;DHT22;43289;52.962;6.196;2023-07-08T09:44:26;28.40;99.90
57444;DHT22;43289;52.962;6.196;2023-07-08T09:46:56;28.50;99.90
57444;DHT22;43289;52.962;6.196;2023-07-08T09:49:28;28.50;99.90
57444;DHT22;43289;52.962;6.196;2023-07-08T09:51:54;28.50;99.90
57444;DHT22;43289;52.962;6.196;2023-07-08T09:54:25;28.60;99.90
57444;DHT22;43289;52.962;6.196;2023-07-08T09:56:59;28.60;99.90
57444;DHT22;43289;52.962;6.196;2023-07-08T09:59:30;28.70;99.90
57444;DHT22;43289;52.962;6.196;2023-07-08T10:02:00;28.80;99.90
57444;DHT22;43289;52.962;6.196;2023-07-08T10:04:26;28.90;99.90
57444;DHT22;43289;52.962;6.196;2023-07-08T10:06:54;29.00;99.90
57444;DHT22;43289;52.962;6.196;2023-07-08T10:09:23;29.20;99.90
57444;DHT22;43289;52.962;6.196;2023-07-08T10:11:55;29.20;99.90
57444;DHT22;43289;52.962;6.196;2023-07-08T10:14:34;29.30;99.90
57444;DHT22;43289;52.962;6.196;2023-07-08T10:17:02;29.40;99.90
57444;DHT22;43289;52.962;6.196;2023-07-08T10:19:27;29.50;99.90
57444;DHT22;43289;52.962;6.196;2023-07-08T10:22:13;29.60;99.90
57444;DHT22;43289;52.962;6.196;2023-07-08T10:24:47;29.80;99.90
57444;DHT22;43289;52.962;6.196;2023-07-08T10:27:34;30.00;99.90
57444;DHT22;43289;52.962;6.196;2023-07-08T10:35:40;30.20;99.90
57444;DHT22;43289;52.962;6.196;2023-07-08T10:38:42;30.10;99.90
57444;DHT22;43289;52.962;6.196;2023-07-08T10:41:20;30.00;99.90
57444;DHT22;43289;52.962;6.196;2023-07-08T10:44:17;30.00;99.90
57444;DHT22;43289;52.962;6.196;2023-07-08T10:47:06;30.30;99.90
57444;DHT22;43289;52.962;6.196;2023-07-08T10:58:22;31.10;99.90
57444;DHT22;43289;52.962;6.196;2023-07-08T11:01:28;31.30;99.90
57444;DHT22;43289;52.962;6.196;2023-07-08T11:06:59;31.50;99.90
57444;DHT22;43289;52.962;6.196;2023-07-08T11:09:39;31.60;99.90
57444;DHT22;43289;52.962;6.196;2023-07-08T11:12:33;31.80;99.90
57444;DHT22;43289;52.962;6.196;2023-07-08T11:17:58;32.10;99.90
57444;DHT22;43289;52.962;6.196;2023-07-08T11:23:08;32.20;99.90
57444;DHT22;43289;52.962;6.196;2023-07-08T11:25:34;32.20;99.90
57444;DHT22;43289;52.962;6.196;2023-07-08T11:28:04;32.30;99.90
57444;DHT22;43289;52.962;6.196;2023-07-08T11:30:32;32.40;99.90
57444;DHT22;43289;52.962;6.196;2023-07-08T11:33:05;32.50;99.90
57444;DHT22;43289;52.962;6.196;2023-07-08T11:35:42;32.60;99.90
57444;DHT22;43289;52.962;6.196;2023-07-08T11:38:16;32.70;99.90
57444;DHT22;43289;52.962;6.196;2023-07-08T11:41:01;32.90;99.90
57444;DHT22;43289;52.962;6.196;2023-07-08T11:43:48;32.90;99.90
57444;DHT22;43289;52.962;6.196;2023-07-08T11:46:19;33.00;99.90
57444;DHT22;43289;52.962;6.196;2023-07-08T11:48:48;33.30;99.90
57444;DHT22;43289;52.962;6.196;2023-07-08T11:51:29;33.40;99.90
57444;DHT22;43289;52.962;6.196;2023-07-08T11:56:48;33.60;99.90
57444;DHT22;43289;52.962;6.196;2023-07-08T11:59:19;33.70;99.90
57444;DHT22;43289;52.962;6.196;2023-07-08T12:01:47;33.90;99.90
57444;DHT22;43289;52.962;6.196;2023-07-08T12:09:29;34.30;99.90
57444;DHT22;43289;52.962;6.196;2023-07-08T12:12:05;34.40;99.90
57444;DHT22;43289;52.962;6.196;2023-07-08T12:14:31;34.60;99.90
57444;DHT22;43289;52.962;6.196;2023-07-08T12:16:57;34.70;99.90
57444;DHT22;43289;52.962;6.196;2023-07-08T12:19:25;34.90;99.90
57444;DHT22;43289;52.962;6.196;2023-07-08T12:21:52;35.00;99.90
57444;DHT22;43289;52.962;6.196;2023-07-08T12:24:18;35.00;99.90
57444;DHT22;43289;52.962;6.196;2023-07-08T12:26:50;35.00;99.90
57444;DHT22;43289;52.962;6.196;2023-07-08T12:29:16;35.20;99.90
57444;DHT22;43289;52.962;6.196;2023-07-08T12:31:42;35.30;99.90
57444;DHT22;43289;52.962;6.196;2023-07-08T12:34:13;35.30;99.90
57444;DHT22;43289;52.962;6.196;2023-07-08T12:36:41;35.30;99.90
57444;DHT22;43289;52.962;6.196;2023-07-08T12:39:13;35.30;99.90
57444;DHT22;43289;52.962;6.196;2023-07-08T12:41:41;35.40;99.90
57444;DHT22;43289;52.962;6.196;2023-07-08T12:44:26;35.30;99.90
57444;DHT22;43289;52.962;6.196;2023-07-08T16:17:45;35.50;99.90
57444;DHT22;43289;52.962;6.196;2023-07-08T16:20:20;41.10;99.90
57444;DHT22;43289;52.962;6.196;2023-07-08T16:22:47;39.70;99.90
57444;DHT22;43289;52.962;6.196;2023-07-08T16:25:16;38.80;99.90
57444;DHT22;43289;52.962;6.196;2023-07-08T16:27:45;38.40;99.90
57444;DHT22;43289;52.962;6.196;2023-07-08T16:30:15;38.10;99.90
57444;DHT22;43289;52.962;6.196;2023-07-08T16:32:41;38.20;99.90
57444;DHT22;43289;52.962;6.196;2023-07-08T16:35:16;38.10;99.90
57444;DHT22;43289;52.962;6.196;2023-07-08T16:37:47;37.50;99.90
57444;DHT22;43289;52.962;6.196;2023-07-08T16:40:21;36.90;99.90
57444;DHT22;43289;52.962;6.196;2023-07-08T16:42:48;36.50;99.90
57444;DHT22;43289;52.962;6.196;2023-07-08T16:52:35;35.90;99.90
57444;DHT22;43289;52.962;6.196;2023-07-08T16:55:02;34.30;99.90
57444;DHT22;43289;52.962;6.196;2023-07-08T16:57:28;34.10;99.90
57444;DHT22;43289;52.962;6.196;2023-07-08T16:59:53;33.90;99.90
57444;DHT22;43289;52.962;6.196;2023-07-08T17:02:19;33.70;99.90
57444;DHT22;43289;52.962;6.196;2023-07-08T17:04:50;33.60;99.90
57444;DHT22;43289;52.962;6.196;2023-07-08T17:07:16;33.60;99.90
57444;DHT22;43289;52.962;6.196;2023-07-08T17:09:43;33.30;99.90
57444;DHT22;43289;52.962;6.196;2023-07-08T17:12:09;33.20;99.90
57444;DHT22;43289;52.962;6.196;2023-07-08T17:14:35;32.80;99.90
57444;DHT22;43289;52.962;6.196;2023-07-08T17:17:02;32.60;99.90
57444;DHT22;43289;52.962;6.196;2023-07-08T17:19:28;32.50;99.90
57444;DHT22;43289;52.962;6.196;2023-07-08T17:21:54;32.40;99.90
57444;DHT22;43289;52.962;6.196;2023-07-08T17:24:21;32.30;99.90
57444;DHT22;43289;52.962;6.196;2023-07-08T17:26:48;32.30;99.90
57444;DHT22;43289;52.962;6.196;2023-07-08T17:29:13;32.10;99.90
57444;DHT22;43289;52.962;6.196;2023-07-08T17:31:40;32.00;99.90
57444;DHT22;43289;52.962;6.196;2023-07-08T17:34:20;31.90;99.90
57444;DHT22;43289;52.962;6.196;2023-07-08T17:36:47;31.90;99.90
57444;DHT22;43289;52.962;6.196;2023-07-08T17:39:13;31.70;99.90
57444;DHT22;43289;52.962;6.196;2023-07-08T17:41:39;31.60;99.90
57444;DHT22;43289;52.962;6.196;2023-07-08T17:53:52;31.50;99.90
57444;DHT22;43289;52.962;6.196;2023-07-08T17:56:26;31.10;99.90
57444;DHT22;43289;52.962;6.196;2023-07-08T17:58:55;30.80;99.90
57444;DHT22;43289;52.962;6.196;2023-07-08T18:01:23;30.60;99.90
57444;DHT22;43289;52.962;6.196;2023-07-08T18:03:49;30.50;99.90
57444;DHT22;43289;52.962;6.196;2023-07-08T18:06:15;30.40;99.90
57444;DHT22;43289;52.962;6.196;2023-07-08T18:08:41;30.30;99.90
57444;DHT22;43289;52.962;6.196;2023-07-08T18:16:13;30.10;99.90
57444;DHT22;43289;52.962;6.196;2023-07-08T18:23:39;29.80;99.90
57444;DHT22;43289;52.962;6.196;2023-07-08T18:26:05;29.30;99.90
57444;DHT22;43289;52.962;6.196;2023-07-08T18:28:31;29.20;99.90
57444;DHT22;43289;52.962;6.196;2023-07-08T18:30:56;29.00;99.90
57444;DHT22;43289;52.962;6.196;2023-07-08T18:33:23;28.90;99.90
57444;DHT22;43289;52.962;6.196;2023-07-08T18:35:49;28.80;99.90
57444;DHT22;43289;52.962;6.196;2023-07-08T18:38:15;28.70;99.90
57444;DHT22;43289;52.962;6.196;2023-07-08T18:40:42;28.70;99.90
57444;DHT22;43289;52.962;6.196;2023-07-08T18:43:19;28.60;99.90
57444;DHT22;43289;52.962;6.196;2023-07-08T18:45:46;28.50;99.90
57444;DHT22;43289;52.962;6.196;2023-07-08T18:48:13;28.50;99.90
57444;DHT22;43289;52.962;6.196;2023-07-08T18:50:40;28.40;99.90
57444;DHT22;43289;52.962;6.196;2023-07-08T18:53:12;28.40;99.90
57444;DHT22;43289;52.962;6.196;2023-07-08T18:55:39;28.40;99.90
57444;DHT22;43289;52.962;6.196;2023-07-08T18:58:04;28.20;99.90
57444;DHT22;43289;52.962;6.196;2023-07-08T19:00:30;28.10;99.90
57444;DHT22;43289;52.962;6.196;2023-07-08T19:02:58;28.00;99.90
57444;DHT22;43289;52.962;6.196;2023-07-08T19:05:24;28.00;99.90
57444;DHT22;43289;52.962;6.196;2023-07-08T19:07:51;27.90;99.90
57444;DHT22;43289;52.962;6.196;2023-07-08T19:10:18;27.70;99.90
57444;DHT22;43289;52.962;6.196;2023-07-08T19:12:50;27.60;99.90
57444;DHT22;43289;52.962;6.196;2023-07-08T19:15:23;27.50;99.90
57444;DHT22;43289;52.962;6.196;2023-07-08T19:17:50;27.40;99.90
57444;DHT22;43289;52.962;6.196;2023-07-08T19:20:17;27.20;99.90
57444;DHT22;43289;52.962;6.196;2023-07-08T19:22:43;27.30;99.90
57444;DHT22;43289;52.962;6.196;2023-07-08T19:25:22;27.10;99.90
